createdAt,value
2023-03-08T00:00:08.237Z,88.87
2023-03-08T00:01:08.301Z,89.08
2023-03-08T00:02:08.236Z,89.08
2023-03-08T00:03:08.241Z,89.18
2023-03-08T00:04:08.260Z,88.98
2023-03-08T00:05:08.186Z,89.12
2023-03-08T00:06:08.371Z,89.08
2023-03-08T00:07:08.185Z,89.43
2023-03-08T00:08:08.252Z,89.43
2023-03-08T00:09:08.141Z,89.32
2023-03-08T00:10:08.144Z,89.22
2023-03-08T00:11:08.136Z,89.50
2023-03-08T00:12:08.111Z,89.54
2023-03-08T00:13:08.108Z,89.54
2023-03-08T00:14:08.106Z,89.43
2023-03-08T00:15:08.075Z,89.43
2023-03-08T00:16:08.117Z,89.54
2023-03-08T00:17:08.068Z,89.75
2023-03-08T00:18:08.044Z,89.75
2023-03-08T00:19:08.054Z,90.06
2023-03-08T00:20:08.042Z,89.78
2023-03-08T00:21:08.012Z,89.85
2023-03-08T00:22:08.013Z,89.85
2023-03-08T00:23:08.010Z,90.62
2023-03-08T00:24:07.979Z,90.52
2023-03-08T00:25:08.021Z,90.62
2023-03-08T00:26:07.951Z,90.62
2023-03-08T00:27:08.020Z,90.62
2023-03-08T00:28:07.940Z,90.41
2023-03-08T00:29:07.973Z,90.62
2023-03-08T00:30:07.913Z,90.62
2023-03-08T00:31:07.915Z,90.41
2023-03-08T00:32:07.927Z,90.83
2023-03-08T00:33:07.908Z,90.93
2023-03-08T00:34:07.888Z,91.25
2023-03-08T00:35:07.874Z,91.14
2023-03-08T00:36:07.888Z,91.25
2023-03-08T00:37:07.835Z,91.46
2023-03-08T00:38:07.832Z,90.87
2023-03-08T00:39:07.846Z,90.87
2023-03-08T00:40:07.801Z,91.29
2023-03-08T00:41:07.894Z,91.71
2023-03-08T00:42:07.786Z,91.91
2023-03-08T00:43:07.771Z,91.97
2023-03-08T00:44:07.883Z,91.91
2023-03-08T00:45:07.752Z,92.02
2023-03-08T00:46:07.787Z,92.02
2023-03-08T00:47:07.741Z,91.91
2023-03-08T00:48:07.731Z,91.71
2023-03-08T00:49:07.704Z,91.50
2023-03-08T00:50:07.692Z,91.29
2023-03-08T00:51:07.753Z,91.60
2023-03-08T00:52:07.670Z,91.71
2023-03-08T00:53:07.661Z,91.91
2023-03-08T00:54:07.654Z,91.91
2023-03-08T00:55:07.664Z,92.44
2023-03-08T00:56:07.636Z,92.44
2023-03-08T00:57:07.638Z,92.33
2023-03-08T00:58:07.619Z,92.54
2023-03-08T00:59:07.594Z,92.75
2023-03-08T01:00:07.585Z,92.54
2023-03-08T01:01:07.640Z,92.44
2023-03-08T01:02:07.558Z,92.65
2023-03-08T01:03:08.251Z,92.54
2023-03-08T01:04:07.572Z,92.54
2023-03-08T01:05:07.530Z,92.85
2023-03-08T01:06:07.559Z,92.75
2023-03-08T01:07:07.514Z,92.85
2023-03-08T01:08:07.499Z,92.75
2023-03-08T01:09:07.489Z,92.44
2023-03-08T01:10:07.478Z,93.06
2023-03-08T01:11:07.622Z,93.21
2023-03-08T01:12:07.471Z,93.06
2023-03-08T01:13:07.447Z,93.31
2023-03-08T01:14:07.425Z,93.31
2023-03-08T01:15:07.532Z,93.21
2023-03-08T01:16:08.110Z,93.10
2023-03-08T01:17:07.416Z,93.00
2023-03-08T01:18:07.397Z,93.10
2023-03-08T01:19:07.387Z,92.90
2023-03-08T01:20:07.386Z,92.90
2023-03-08T01:21:07.361Z,93.10
2023-03-08T01:22:08.248Z,93.00
2023-03-08T01:23:07.351Z,93.41
2023-03-08T01:24:07.464Z,93.52
2023-03-08T01:25:07.315Z,93.21
2023-03-08T01:26:07.340Z,93.31
2023-03-08T01:27:07.323Z,93.31
2023-03-08T01:28:07.300Z,93.41
2023-03-08T01:29:07.345Z,93.73
2023-03-08T01:30:07.267Z,93.73
2023-03-08T01:31:08.214Z,93.63
2023-03-08T01:32:07.264Z,93.84
2023-03-08T01:33:07.245Z,94.04
2023-03-08T01:34:07.215Z,94.15
2023-03-08T01:35:07.224Z,94.25
2023-03-08T01:36:07.446Z,93.94
2023-03-08T01:37:07.192Z,94.04
2023-03-08T01:38:07.166Z,94.15
2023-03-08T01:39:07.156Z,94.25
2023-03-08T01:40:07.147Z,94.04
2023-03-08T01:41:07.148Z,94.04
2023-03-08T01:42:07.307Z,94.15
2023-03-08T01:43:07.130Z,94.46
2023-03-08T01:44:07.101Z,94.09
2023-03-08T01:45:07.089Z,94.19
2023-03-08T01:46:07.168Z,94.40
2023-03-08T01:47:07.082Z,94.57
2023-03-08T01:48:07.068Z,94.78
2023-03-08T01:49:07.045Z,94.67
2023-03-08T01:50:07.030Z,94.67
2023-03-08T01:51:07.033Z,94.92
2023-03-08T01:52:07.068Z,94.57
2023-03-08T01:53:07.008Z,94.92
2023-03-08T01:54:06.986Z,95.55
2023-03-08T01:55:06.985Z,95.82
2023-03-08T01:56:06.968Z,95.72
2023-03-08T01:57:07.000Z,95.65
2023-03-08T01:58:06.951Z,95.72
2023-03-08T01:59:06.960Z,95.44
2023-03-08T02:00:06.925Z,95.19
2023-03-08T02:01:06.943Z,95.23
2023-03-08T02:02:06.902Z,95.86
2023-03-08T02:03:06.913Z,96.07
2023-03-08T02:04:06.882Z,95.92
2023-03-08T02:05:06.872Z,95.97
2023-03-08T02:06:06.873Z,95.86
2023-03-08T02:07:06.871Z,96.17
2023-03-08T02:08:06.843Z,95.86
2023-03-08T02:09:06.987Z,95.76
2023-03-08T02:10:06.826Z,95.65
2023-03-08T02:11:06.826Z,95.72
2023-03-08T02:12:06.825Z,95.97
2023-03-08T02:13:06.789Z,95.76
2023-03-08T02:14:06.775Z,95.65
2023-03-08T02:15:06.924Z,95.97
2023-03-08T02:16:06.765Z,95.97
2023-03-08T02:17:06.751Z,96.07
2023-03-08T02:18:06.747Z,95.86
2023-03-08T02:19:06.725Z,96.38
2023-03-08T02:20:06.725Z,96.17
2023-03-08T02:21:06.950Z,96.07
2023-03-08T02:22:06.691Z,95.76
2023-03-08T02:23:06.686Z,96.17
2023-03-08T02:24:06.673Z,96.28
2023-03-08T02:25:06.660Z,96.28
2023-03-08T02:26:06.662Z,96.07
2023-03-08T02:27:06.660Z,96.07
2023-03-08T02:28:06.642Z,96.07
2023-03-08T02:29:06.618Z,96.28
2023-03-08T02:30:06.624Z,96.28
2023-03-08T02:31:06.623Z,96.07
2023-03-08T02:32:06.612Z,96.07
2023-03-08T02:33:06.578Z,96.17
2023-03-08T02:34:06.577Z,96.28
2023-03-08T02:35:06.552Z,96.28
2023-03-08T02:36:06.598Z,96.28
2023-03-08T02:37:06.537Z,96.17
2023-03-08T02:38:06.522Z,96.28
2023-03-08T02:39:06.521Z,96.07
2023-03-08T02:40:06.552Z,96.07
2023-03-08T02:41:06.504Z,96.17
2023-03-08T02:42:06.485Z,96.17
2023-03-08T02:43:06.469Z,96.28
2023-03-08T02:44:06.456Z,96.28
2023-03-08T02:45:06.450Z,96.38
2023-03-08T02:46:06.446Z,96.80
2023-03-08T02:47:06.443Z,96.59
2023-03-08T02:48:06.423Z,96.49
2023-03-08T02:49:06.401Z,96.38
2023-03-08T02:50:06.585Z,96.28
2023-03-08T02:51:06.417Z,96.07
2023-03-08T02:52:06.538Z,96.59
2023-03-08T02:53:06.359Z,96.38
2023-03-08T02:54:06.351Z,96.38
2023-03-08T02:55:06.344Z,96.49
2023-03-08T02:56:06.328Z,96.28
2023-03-08T02:57:06.325Z,96.28
2023-03-08T02:58:06.305Z,96.07
2023-03-08T02:59:06.296Z,96.28
2023-03-08T03:00:06.282Z,96.28
2023-03-08T03:01:06.307Z,96.17
2023-03-08T03:02:06.285Z,96.07
2023-03-08T03:03:06.271Z,96.22
2023-03-08T03:04:06.240Z,96.07
2023-03-08T03:05:06.231Z,96.17
2023-03-08T03:06:06.249Z,96.28
2023-03-08T03:07:06.235Z,96.17
2023-03-08T03:08:06.193Z,95.97
2023-03-08T03:09:06.189Z,96.28
2023-03-08T03:10:06.181Z,96.07
2023-03-08T03:11:06.197Z,95.97
2023-03-08T03:12:06.179Z,95.86
2023-03-08T03:13:06.150Z,95.86
2023-03-08T03:14:06.133Z,95.65
2023-03-08T03:15:06.120Z,95.97
2023-03-08T03:16:06.328Z,95.97
2023-03-08T03:17:06.120Z,95.97
2023-03-08T03:18:06.166Z,95.65
2023-03-08T03:19:06.104Z,95.97
2023-03-08T03:20:06.080Z,95.65
2023-03-08T03:21:06.060Z,95.55
2023-03-08T03:22:06.039Z,95.86
2023-03-08T03:23:06.030Z,95.76
2023-03-08T03:24:06.092Z,95.76
2023-03-08T03:25:06.023Z,95.76
2023-03-08T03:26:05.998Z,95.97
2023-03-08T03:27:06.006Z,95.97
2023-03-08T03:28:05.971Z,96.17
2023-03-08T03:29:05.961Z,95.44
2023-03-08T03:30:06.112Z,95.34
2023-03-08T03:31:06.106Z,95.76
2023-03-08T03:32:06.879Z,95.65
2023-03-08T03:33:06.763Z,95.29
2023-03-08T03:34:05.968Z,95.09
2023-03-08T03:35:06.445Z,95.65
2023-03-08T03:36:05.934Z,95.34
2023-03-08T03:37:06.974Z,95.23
2023-03-08T03:38:05.872Z,95.03
2023-03-08T03:39:05.854Z,94.82
2023-03-08T03:40:05.876Z,94.78
2023-03-08T03:41:05.830Z,94.46
2023-03-08T03:42:05.823Z,94.82
2023-03-08T03:43:05.812Z,94.15
2023-03-08T03:44:05.815Z,94.04
2023-03-08T03:45:05.788Z,94.25
2023-03-08T03:46:05.842Z,94.04
2023-03-08T03:47:05.786Z,93.84
2023-03-08T03:48:05.777Z,94.15
2023-03-08T03:49:05.754Z,94.04
2023-03-08T03:50:05.761Z,93.94
2023-03-08T03:51:05.766Z,93.84
2023-03-08T03:52:05.742Z,93.90
2023-03-08T03:53:05.707Z,93.84
2023-03-08T03:54:07.343Z,94.15
2023-03-08T03:55:05.712Z,93.94
2023-03-08T03:56:05.685Z,93.21
2023-03-08T03:57:05.671Z,93.31
2023-03-08T03:58:05.658Z,93.27
2023-03-08T03:59:05.652Z,93.48
2023-03-08T04:00:05.660Z,92.96
2023-03-08T04:01:05.629Z,93.16
2023-03-08T04:02:05.622Z,92.85
2023-03-08T04:03:05.915Z,93.16
2023-03-08T04:04:05.654Z,92.96
2023-03-08T04:05:12.659Z,93.16
2023-03-08T04:06:05.589Z,93.37
2023-03-08T04:07:05.597Z,93.16
2023-03-08T04:08:05.556Z,93.37
2023-03-08T04:09:05.556Z,92.91
2023-03-08T04:10:05.527Z,92.85
2023-03-08T04:11:05.523Z,92.44
2023-03-08T04:12:05.512Z,92.75
2023-03-08T04:13:05.534Z,92.44
2023-03-08T04:14:05.497Z,91.91
2023-03-08T04:15:05.494Z,91.77
2023-03-08T04:16:05.513Z,92.02
2023-03-08T04:17:05.470Z,91.81
2023-03-08T04:18:05.446Z,92.22
2023-03-08T04:19:05.437Z,92.02
2023-03-08T04:20:05.441Z,92.02
2023-03-08T04:21:05.416Z,91.39
2023-03-08T04:22:05.446Z,91.81
2023-03-08T04:23:05.413Z,92.02
2023-03-08T04:24:05.414Z,92.22
2023-03-08T04:25:05.382Z,91.91
2023-03-08T04:26:05.408Z,91.81
2023-03-08T04:27:05.346Z,91.60
2023-03-08T04:28:05.357Z,91.91
2023-03-08T04:29:05.319Z,92.12
2023-03-08T04:30:05.362Z,91.71
2023-03-08T04:31:05.366Z,92.27
2023-03-08T04:32:05.344Z,91.75
2023-03-08T04:33:05.299Z,91.85
2023-03-08T04:34:05.290Z,92.16
2023-03-08T04:35:05.278Z,92.16
2023-03-08T04:36:05.278Z,92.06
2023-03-08T04:37:05.238Z,92.44
2023-03-08T04:38:05.263Z,92.37
2023-03-08T04:39:05.238Z,92.33
2023-03-08T04:40:05.229Z,92.44
2023-03-08T04:41:05.398Z,92.33
2023-03-08T04:42:05.193Z,92.44
2023-03-08T04:43:05.172Z,92.02
2023-03-08T04:44:05.175Z,92.02
2023-03-08T04:45:05.154Z,92.02
2023-03-08T04:46:05.169Z,91.71
2023-03-08T04:47:05.126Z,91.71
2023-03-08T04:48:05.129Z,92.02
2023-03-08T04:49:05.102Z,92.02
2023-03-08T04:50:05.123Z,92.02
2023-03-08T04:51:05.086Z,92.02
2023-03-08T04:52:05.083Z,91.81
2023-03-08T04:53:05.066Z,91.81
2023-03-08T04:54:05.057Z,91.71
2023-03-08T04:55:05.098Z,91.54
2023-03-08T04:56:05.036Z,91.43
2023-03-08T04:57:05.024Z,91.96
2023-03-08T04:58:05.046Z,92.06
2023-03-08T04:59:04.997Z,92.16
2023-03-08T05:00:04.989Z,92.52
2023-03-08T05:01:04.992Z,92.58
2023-03-08T05:02:05.012Z,92.52
2023-03-08T05:03:04.961Z,92.94
2023-03-08T05:04:04.947Z,93.04
2023-03-08T05:05:05.050Z,92.52
2023-03-08T05:06:04.934Z,92.94
2023-03-08T05:07:04.918Z,93.15
2023-03-08T05:08:04.921Z,93.67
2023-03-08T05:09:04.890Z,93.29
2023-03-08T05:10:04.881Z,93.35
2023-03-08T05:11:04.909Z,93.40
2023-03-08T05:12:04.862Z,93.08
2023-03-08T05:13:04.870Z,93.25
2023-03-08T05:14:04.843Z,93.29
2023-03-08T05:15:04.853Z,93.08
2023-03-08T05:16:04.885Z,93.19
2023-03-08T05:17:04.848Z,93.19
2023-03-08T05:18:04.794Z,93.50
2023-03-08T05:19:04.809Z,93.08
2023-03-08T05:20:04.787Z,93.29
2023-03-08T05:21:04.763Z,93.29
2023-03-08T05:22:04.768Z,93.40
2023-03-08T05:23:04.758Z,93.82
2023-03-08T05:24:04.732Z,94.17
2023-03-08T05:25:04.722Z,94.23
2023-03-08T05:26:04.735Z,94.65
2023-03-08T05:27:04.713Z,94.38
2023-03-08T05:28:04.709Z,94.02
2023-03-08T05:29:04.680Z,94.49
2023-03-08T05:30:04.668Z,94.49
2023-03-08T05:31:04.831Z,94.59
2023-03-08T05:32:05.981Z,94.86
2023-03-08T05:33:04.661Z,94.49
2023-03-08T05:34:04.622Z,94.02
2023-03-08T05:35:04.682Z,94.13
2023-03-08T05:36:04.604Z,93.92
2023-03-08T05:37:04.601Z,94.23
2023-03-08T05:38:04.601Z,94.23
2023-03-08T05:39:04.564Z,94.02
2023-03-08T05:40:04.565Z,94.02
2023-03-08T05:41:04.548Z,94.23
2023-03-08T05:42:04.540Z,94.34
2023-03-08T05:43:04.554Z,94.23
2023-03-08T05:44:04.515Z,94.55
2023-03-08T05:45:04.537Z,94.44
2023-03-08T05:46:04.641Z,94.86
2023-03-08T05:47:04.484Z,94.76
2023-03-08T05:48:04.484Z,94.86
2023-03-08T05:49:04.460Z,94.96
2023-03-08T05:50:04.445Z,94.34
2023-03-08T05:51:04.433Z,94.23
2023-03-08T05:52:04.430Z,94.65
2023-03-08T05:53:04.492Z,94.76
2023-03-08T05:54:04.405Z,94.50
2023-03-08T05:55:04.395Z,94.96
2023-03-08T05:56:04.386Z,94.71
2023-03-08T05:57:04.411Z,94.86
2023-03-08T05:58:04.363Z,94.19
2023-03-08T05:59:04.373Z,94.86
2023-03-08T06:00:04.346Z,94.82
2023-03-08T06:01:04.324Z,94.50
2023-03-08T06:02:04.360Z,94.19
2023-03-08T06:03:04.332Z,94.40
2023-03-08T06:04:04.292Z,94.44
2023-03-08T06:05:04.281Z,94.29
2023-03-08T06:06:04.280Z,94.13
2023-03-08T06:07:04.287Z,94.34
2023-03-08T06:08:04.264Z,94.55
2023-03-08T06:09:04.280Z,94.71
2023-03-08T06:10:04.228Z,94.76
2023-03-08T06:11:04.220Z,94.71
2023-03-08T06:12:04.239Z,94.71
2023-03-08T06:13:04.191Z,94.71
2023-03-08T06:14:04.181Z,94.29
2023-03-08T06:15:04.313Z,94.50
2023-03-08T06:16:04.188Z,93.98
2023-03-08T06:17:04.318Z,94.19
2023-03-08T06:18:04.148Z,93.73
2023-03-08T06:19:04.821Z,93.52
2023-03-08T06:20:04.118Z,93.52
2023-03-08T06:21:04.111Z,93.52
2023-03-08T06:22:04.126Z,93.10
2023-03-08T06:23:04.096Z,93.00
2023-03-08T06:24:04.093Z,93.27
2023-03-08T06:25:04.066Z,93.37
2023-03-08T06:26:04.060Z,92.85
2023-03-08T06:27:04.042Z,92.44
2023-03-08T06:28:04.096Z,92.44
2023-03-08T06:29:04.021Z,91.71
2023-03-08T06:30:04.021Z,92.33
2023-03-08T06:31:04.058Z,91.91
2023-03-08T06:32:03.993Z,92.44
2023-03-08T06:33:04.035Z,92.33
2023-03-08T06:34:03.978Z,91.81
2023-03-08T06:35:03.963Z,92.02
2023-03-08T06:36:03.960Z,91.91
2023-03-08T06:37:03.972Z,92.02
2023-03-08T06:38:03.948Z,91.91
2023-03-08T06:39:03.916Z,91.18
2023-03-08T06:40:03.922Z,91.29
2023-03-08T06:41:03.908Z,91.29
2023-03-08T06:42:03.894Z,90.87
2023-03-08T06:43:03.900Z,91.35
2023-03-08T06:44:03.864Z,91.04
2023-03-08T06:45:03.870Z,90.83
2023-03-08T06:46:03.858Z,89.95
2023-03-08T06:47:04.010Z,89.95
2023-03-08T06:48:03.836Z,89.39
2023-03-08T06:49:03.805Z,89.43
2023-03-08T06:50:03.802Z,89.39
2023-03-08T06:51:03.816Z,88.87
2023-03-08T06:52:03.775Z,89.14
2023-03-08T06:53:03.767Z,87.65
2023-03-08T06:54:03.756Z,86.77
2023-03-08T06:55:03.746Z,85.59
2023-03-08T06:56:03.756Z,85.80
2023-03-08T06:57:05.726Z,85.24
2023-03-08T06:58:03.711Z,84.16
2023-03-08T06:59:03.744Z,83.43
2023-03-08T07:00:03.695Z,83.01
2023-03-08T07:01:03.898Z,82.18
2023-03-08T07:02:03.667Z,82.50
2023-03-08T07:03:03.699Z,82.25
2023-03-08T07:04:03.811Z,81.80
2023-03-08T07:05:03.632Z,80.55
2023-03-08T07:06:03.628Z,81.07
2023-03-08T07:07:03.676Z,80.21
2023-03-08T07:08:03.602Z,79.58
2023-03-08T07:09:03.584Z,79.58
2023-03-08T07:10:03.571Z,78.96
2023-03-08T07:11:03.566Z,78.51
2023-03-08T07:12:03.565Z,77.78
2023-03-08T07:13:03.614Z,77.99
2023-03-08T07:14:03.532Z,78.16
2023-03-08T07:15:03.518Z,77.47
2023-03-08T07:16:03.546Z,75.60
2023-03-08T07:17:03.528Z,73.33
2023-03-08T07:18:03.481Z,71.81
2023-03-08T07:19:03.493Z,70.62
2023-03-08T07:20:03.461Z,69.73
2023-03-08T07:21:03.450Z,67.02
2023-03-08T07:22:03.465Z,67.02
2023-03-08T07:23:03.618Z,66.43
2023-03-08T07:24:03.455Z,67.32
2023-03-08T07:25:03.424Z,68.66
2023-03-08T07:26:03.407Z,67.14
2023-03-08T07:27:03.394Z,68.24
2023-03-08T07:28:03.381Z,67.60
2023-03-08T07:29:03.355Z,66.94
2023-03-08T07:30:03.349Z,65.55
2023-03-08T07:31:03.341Z,65.00
2023-03-08T07:32:03.488Z,64.66
2023-03-08T07:33:03.432Z,64.15
2023-03-08T07:34:03.338Z,63.27
2023-03-08T07:35:03.330Z,62.65
2023-03-08T07:36:03.489Z,62.45
2023-03-08T07:37:03.298Z,61.90
2023-03-08T07:38:03.281Z,61.36
2023-03-08T07:39:03.253Z,60.69
2023-03-08T07:40:03.243Z,59.87
2023-03-08T07:41:03.223Z,60.00
2023-03-08T07:42:03.271Z,59.66
2023-03-08T07:43:03.225Z,59.66
2023-03-08T07:44:03.212Z,59.43
2023-03-08T07:45:03.185Z,58.61
2023-03-08T07:46:03.225Z,58.69
2023-03-08T07:47:03.201Z,58.38
2023-03-08T07:48:03.147Z,57.51
2023-03-08T07:49:03.252Z,57.04
2023-03-08T07:50:03.131Z,55.87
2023-03-08T07:51:03.255Z,54.08
2023-03-08T07:52:03.150Z,53.55
2023-03-08T07:53:03.134Z,53.21
2023-03-08T07:54:03.084Z,53.49
2023-03-08T07:55:03.070Z,52.32
2023-03-08T07:56:03.074Z,51.28
2023-03-08T07:57:03.063Z,51.15
2023-03-08T07:58:03.056Z,50.67
2023-03-08T07:59:03.048Z,51.32
2023-03-08T08:00:03.016Z,53.36
2023-03-08T08:01:03.007Z,55.56
2023-03-08T08:02:03.046Z,55.26
2023-03-08T08:03:03.123Z,56.23
2023-03-08T08:04:03.045Z,56.77
2023-03-08T08:05:03.042Z,56.87
2023-03-08T08:06:02.952Z,57.64
2023-03-08T08:07:05.036Z,58.07
2023-03-08T08:08:02.928Z,57.95
2023-03-08T08:09:02.926Z,58.07
2023-03-08T08:10:02.917Z,58.57
2023-03-08T08:11:02.915Z,61.02
2023-03-08T08:12:02.897Z,61.71
2023-03-08T08:13:02.877Z,61.21
2023-03-08T08:14:02.859Z,60.42
2023-03-08T08:15:02.854Z,60.86
2023-03-08T08:16:02.856Z,61.58
2023-03-08T08:17:02.828Z,60.31
2023-03-08T08:18:02.826Z,59.77
2023-03-08T08:19:02.810Z,59.62
2023-03-08T08:20:02.795Z,58.03
2023-03-08T08:21:02.781Z,58.10
2023-03-08T08:22:02.816Z,57.05
2023-03-08T08:23:02.782Z,55.56
2023-03-08T08:24:02.748Z,57.13
2023-03-08T08:25:02.733Z,57.64
2023-03-08T08:26:02.743Z,57.84
2023-03-08T08:27:02.829Z,58.36
2023-03-08T08:28:02.697Z,58.00
2023-03-08T08:29:02.688Z,55.87
2023-03-08T08:30:02.674Z,53.90
2023-03-08T08:31:02.917Z,54.08
2023-03-08T08:32:02.648Z,53.83
2023-03-08T08:33:02.651Z,52.86
2023-03-08T08:34:02.636Z,51.40
2023-03-08T08:35:02.627Z,50.28
2023-03-08T08:36:02.686Z,50.56
2023-03-08T08:37:02.605Z,51.68
2023-03-08T08:38:02.589Z,51.96
2023-03-08T08:39:02.773Z,52.29
2023-03-08T08:40:02.564Z,52.95
2023-03-08T08:41:02.577Z,54.33
2023-03-08T08:42:02.538Z,53.59
2023-03-08T08:43:02.536Z,53.52
2023-03-08T08:44:02.517Z,54.08
2023-03-08T08:45:02.508Z,53.01
2023-03-08T08:46:02.599Z,51.84
2023-03-08T08:47:02.480Z,50.54
2023-03-08T08:48:02.476Z,48.64
2023-03-08T08:49:02.502Z,48.64
2023-03-08T08:50:02.451Z,48.49
2023-03-08T08:51:02.503Z,48.24
2023-03-08T08:52:02.425Z,47.63
2023-03-08T08:53:02.494Z,46.72
2023-03-08T08:54:02.449Z,46.23
2023-03-08T08:55:02.446Z,47.75
2023-03-08T08:56:02.424Z,47.14
2023-03-08T08:57:02.369Z,46.51
2023-03-08T08:58:02.369Z,46.63
2023-03-08T08:59:02.395Z,44.13
2023-03-08T09:00:02.336Z,42.47
2023-03-08T09:01:02.352Z,41.66
2023-03-08T09:02:02.486Z,41.38
2023-03-08T09:03:02.317Z,41.71
2023-03-08T09:04:02.328Z,41.32
2023-03-08T09:05:02.326Z,41.58
2023-03-08T09:06:02.294Z,42.45
2023-03-08T09:07:02.285Z,42.57
2023-03-08T09:08:02.250Z,43.00
2023-03-08T09:09:02.242Z,43.96
2023-03-08T09:10:02.257Z,43.91
2023-03-08T09:11:02.235Z,43.26
2023-03-08T09:12:02.228Z,42.88
2023-03-08T09:13:02.223Z,42.68
2023-03-08T09:14:02.176Z,42.88
2023-03-08T09:15:02.167Z,42.63
2023-03-08T09:16:02.197Z,41.88
2023-03-08T09:17:02.148Z,42.23
2023-03-08T09:18:02.131Z,43.26
2023-03-08T09:19:02.131Z,42.45
2023-03-08T09:20:02.108Z,42.66
2023-03-08T09:21:02.107Z,43.55
2023-03-08T09:22:02.111Z,43.63
2023-03-08T09:23:02.140Z,46.66
2023-03-08T09:24:02.116Z,47.78
2023-03-08T09:25:02.058Z,48.06
2023-03-08T09:26:02.620Z,47.22
2023-03-08T09:27:02.067Z,47.22
2023-03-08T09:28:02.073Z,46.79
2023-03-08T09:29:02.014Z,46.61
2023-03-08T09:30:02.033Z,47.27
2023-03-08T09:31:02.010Z,48.31
2023-03-08T09:32:02.037Z,48.48
2023-03-08T09:33:01.968Z,48.65
2023-03-08T09:34:01.961Z,51.87
2023-03-08T09:35:01.965Z,52.12
2023-03-08T09:36:02.045Z,54.28
2023-03-08T09:37:01.938Z,56.05
2023-03-08T09:38:01.917Z,56.26
2023-03-08T09:39:01.903Z,55.72
2023-03-08T09:40:01.934Z,55.00
2023-03-08T09:41:01.899Z,56.26
2023-03-08T09:42:01.871Z,56.05
2023-03-08T09:43:01.887Z,56.36
2023-03-08T09:44:01.848Z,56.98
2023-03-08T09:45:01.854Z,56.49
2023-03-08T09:46:01.874Z,57.14
2023-03-08T09:47:01.817Z,58.26
2023-03-08T09:48:01.882Z,58.06
2023-03-08T09:49:01.795Z,58.09
2023-03-08T09:50:01.777Z,58.47
2023-03-08T09:51:01.804Z,58.65
2023-03-08T09:52:01.788Z,58.01
2023-03-08T09:53:01.773Z,57.46
2023-03-08T09:54:01.734Z,56.87
2023-03-08T09:55:01.838Z,57.26
2023-03-08T09:56:01.729Z,56.82
2023-03-08T09:57:01.700Z,55.87
2023-03-08T09:58:01.852Z,55.64
2023-03-08T09:59:01.714Z,53.97
2023-03-08T10:00:01.674Z,54.08
2023-03-08T10:01:01.698Z,53.95
2023-03-08T10:02:01.661Z,54.36
2023-03-08T10:03:01.679Z,54.15
2023-03-08T10:04:01.693Z,53.44
2023-03-08T10:05:12.266Z,53.87
2023-03-08T10:07:11.380Z,51.64
2023-03-08T10:08:11.425Z,51.62
2023-03-08T10:09:11.340Z,52.05
2023-03-08T10:10:11.336Z,52.28
2023-03-08T10:11:11.333Z,53.03
2023-03-08T10:12:13.346Z,53.00
2023-03-08T10:13:11.302Z,51.65
2023-03-08T10:14:11.475Z,48.39
2023-03-08T10:15:11.271Z,48.24
2023-03-08T10:16:11.277Z,46.34
2023-03-08T10:17:11.244Z,45.28
2023-03-08T10:18:11.255Z,45.46
2023-03-08T10:19:11.224Z,43.69
2023-03-08T10:20:11.215Z,43.23
2023-03-08T10:21:11.250Z,42.02
2023-03-08T10:22:11.199Z,42.68
2023-03-08T10:23:11.186Z,43.35
2023-03-08T10:24:19.112Z,45.87
2023-03-08T10:25:11.221Z,46.45
2023-03-08T10:26:11.148Z,48.33
2023-03-08T10:27:11.143Z,49.38
2023-03-08T10:28:11.131Z,49.91
2023-03-08T10:29:11.122Z,49.93
2023-03-08T10:30:11.138Z,49.57
2023-03-08T10:31:11.142Z,50.21
2023-03-08T10:32:11.169Z,51.03
2023-03-08T10:33:11.071Z,51.36
2023-03-08T10:34:11.089Z,52.31
2023-03-08T10:35:11.053Z,52.84
2023-03-08T10:36:11.066Z,53.05
2023-03-08T10:37:11.086Z,53.49
2023-03-08T10:38:11.025Z,53.66
2023-03-08T10:39:11.015Z,53.61
2023-03-08T10:40:11.038Z,52.03
2023-03-08T10:41:10.988Z,52.00
2023-03-08T10:42:10.979Z,51.29
2023-03-08T10:43:10.960Z,51.10
2023-03-08T10:44:10.951Z,51.67
2023-03-08T10:45:10.956Z,52.10
2023-03-08T10:46:11.083Z,53.23
2023-03-08T10:47:11.649Z,53.12
2023-03-08T10:48:10.911Z,53.25
2023-03-08T10:49:10.916Z,52.15
2023-03-08T10:50:10.915Z,53.41
2023-03-08T10:51:10.891Z,52.69
2023-03-08T10:52:11.031Z,53.85
2023-03-08T10:53:10.879Z,53.77
2023-03-08T10:54:10.862Z,53.02
2023-03-08T10:55:10.825Z,52.81
2023-03-08T10:56:10.879Z,53.77
2023-03-08T10:57:10.809Z,54.10
2023-03-08T10:58:10.800Z,54.49
2023-03-08T10:59:10.796Z,54.28
2023-03-08T11:00:12.137Z,54.49
2023-03-08T11:01:10.763Z,54.05
2023-03-08T11:02:10.772Z,54.33
2023-03-08T11:03:10.737Z,53.38
2023-03-08T11:04:10.774Z,52.10
2023-03-08T11:05:10.737Z,51.46
2023-03-08T11:06:12.271Z,50.23
2023-03-08T11:07:10.705Z,49.67
2023-03-08T11:08:10.709Z,48.30
2023-03-08T11:09:10.694Z,47.99
2023-03-08T11:10:10.679Z,48.09
2023-03-08T11:11:10.697Z,48.14
2023-03-08T11:12:11.749Z,49.00
2023-03-08T11:13:10.645Z,50.36
2023-03-08T11:14:10.614Z,50.67
2023-03-08T11:15:10.618Z,50.90
2023-03-08T11:16:10.633Z,51.33
2023-03-08T11:17:10.584Z,51.76
2023-03-08T11:18:12.439Z,52.89
2023-03-08T11:19:10.656Z,52.09
2023-03-08T11:20:10.587Z,51.58
2023-03-08T11:21:10.538Z,53.43
2023-03-08T11:22:10.527Z,53.72
2023-03-08T11:23:10.515Z,51.64
2023-03-08T11:24:10.561Z,51.72
2023-03-08T11:25:10.515Z,51.31
2023-03-08T11:26:10.487Z,51.41
2023-03-08T11:27:10.646Z,51.74
2023-03-08T11:28:10.521Z,52.36
2023-03-08T11:29:10.538Z,51.43
2023-03-08T11:30:12.627Z,51.33
2023-03-08T11:31:10.490Z,51.12
2023-03-08T11:32:10.480Z,51.15
2023-03-08T11:33:10.681Z,51.37
2023-03-08T11:34:10.553Z,51.56
2023-03-08T11:35:10.435Z,51.76
2023-03-08T11:36:12.973Z,51.25
2023-03-08T11:37:10.372Z,51.35
2023-03-08T11:38:10.358Z,51.04
2023-03-08T11:39:10.341Z,51.17
2023-03-08T11:40:10.329Z,51.92
2023-03-08T11:41:10.412Z,52.14
2023-03-08T11:42:12.425Z,53.07
2023-03-08T11:43:10.301Z,52.58
2023-03-08T11:44:10.282Z,53.63
2023-03-08T11:45:10.270Z,54.43
2023-03-08T11:46:10.765Z,54.53
2023-03-08T11:47:10.246Z,54.13
2023-03-08T11:48:12.351Z,54.72
2023-03-08T11:49:10.228Z,54.20
2023-03-08T11:50:10.276Z,53.79
2023-03-08T11:51:10.204Z,54.87
2023-03-08T11:52:10.205Z,54.35
2023-03-08T11:53:10.188Z,56.44
2023-03-08T11:54:10.183Z,56.75
2023-03-08T11:55:10.201Z,56.44
2023-03-08T11:56:10.164Z,55.28
2023-03-08T11:57:10.148Z,56.34
2023-03-08T11:58:10.140Z,56.23
2023-03-08T11:59:10.123Z,57.37
2023-03-08T12:00:10.208Z,57.16
2023-03-08T12:01:10.158Z,56.57
2023-03-08T12:02:10.256Z,57.26
2023-03-08T12:03:10.121Z,57.37
2023-03-08T12:04:10.170Z,57.39
2023-03-08T12:05:10.093Z,57.91
2023-03-08T12:06:22.716Z,58.04
2023-03-08T12:07:11.784Z,58.48
2023-03-08T12:08:10.060Z,58.69
2023-03-08T12:09:16.954Z,59.30
2023-03-08T12:10:10.157Z,59.51
2023-03-08T12:11:10.141Z,58.69
2023-03-08T12:12:10.036Z,59.28
2023-03-08T12:13:11.604Z,58.97
2023-03-08T12:14:09.975Z,58.55
2023-03-08T12:15:09.999Z,58.37
2023-03-08T12:16:09.937Z,59.61
2023-03-08T12:17:10.146Z,58.27
2023-03-08T12:18:09.918Z,58.35
2023-03-08T12:19:09.899Z,58.14
2023-03-08T12:20:09.903Z,58.35
2023-03-08T12:21:09.897Z,58.32
2023-03-08T12:22:09.873Z,58.01
2023-03-08T12:23:09.937Z,57.47
2023-03-08T12:24:09.905Z,57.06
2023-03-08T12:25:09.858Z,57.44
2023-03-08T12:26:09.854Z,57.24
2023-03-08T12:27:09.820Z,57.24
2023-03-08T12:28:09.878Z,56.18
2023-03-08T12:29:09.858Z,56.05
2023-03-08T12:30:09.780Z,55.95
2023-03-08T12:31:26.094Z,55.30
2023-03-08T12:32:10.969Z,53.58
2023-03-08T12:33:10.003Z,53.69
2023-03-08T12:34:11.598Z,53.69
2023-03-08T12:35:09.811Z,54.10
2023-03-08T12:36:09.831Z,54.61
2023-03-08T12:37:09.753Z,53.79
2023-03-08T12:38:09.816Z,54.43
2023-03-08T12:39:09.719Z,55.49
2023-03-08T12:40:09.863Z,55.66
2023-03-08T12:41:09.732Z,55.77
2023-03-08T12:42:09.714Z,56.34
2023-03-08T12:43:09.833Z,56.85
2023-03-08T12:44:09.916Z,57.26
2023-03-08T12:45:10.677Z,56.36
2023-03-08T12:46:09.766Z,57.01
2023-03-08T12:47:10.170Z,57.45
2023-03-08T12:48:09.634Z,58.09
2023-03-08T12:49:09.573Z,58.81
2023-03-08T12:50:09.572Z,59.12
2023-03-08T12:51:09.754Z,58.71
2023-03-08T12:52:10.185Z,58.40
2023-03-08T12:53:09.528Z,59.33